createdAt,value
2022-10-17T00:14:33.070Z,14.3
2022-10-17T00:24:33.240Z,14.2
2022-10-17T01:54:39.402Z,16.6
2022-10-17T02:04:39.994Z,16.7
2022-10-17T02:14:40.836Z,16.7
2022-10-17T03:24:44.543Z,16.8
2022-10-17T03:34:45.207Z,17
2022-10-17T03:44:46.252Z,17
2022-10-17T03:54:47.074Z,17.1
2022-10-17T04:04:47.351Z,17.1
2022-10-17T04:34:48.572Z,17.2
2022-10-17T04:54:49.247Z,17.3
2022-10-17T05:44:51.416Z,17.6
2022-10-17T05:54:51.575Z,17.6
2022-10-17T06:04:52.410Z,17.7
2022-10-17T06:14:53.063Z,17.7
2022-10-17T06:34:54.002Z,17.8
2022-10-17T06:44:54.305Z,17.8
2022-10-17T06:54:54.687Z,17.6
2022-10-17T07:04:55.658Z,17.8
2022-10-17T07:14:56.274Z,17.9
2022-10-17T07:24:56.932Z,17.9
2022-10-17T07:34:57.088Z,18
2022-10-17T07:44:57.668Z,18.2
2022-10-17T07:54:57.843Z,18.5
2022-10-17T08:04:58.096Z,18.8
2022-10-17T08:14:58.812Z,18.8
2022-10-17T08:24:59.588Z,18.9
2022-10-17T08:35:00.430Z,19.2
2022-10-17T08:45:00.661Z,19.5
2022-10-17T08:55:00.912Z,19.9
2022-10-17T09:05:01.730Z,20.1
2022-10-17T09:25:02.526Z,20.4
2022-10-17T09:35:02.700Z,20.5
2022-10-17T09:45:03.199Z,20.3
2022-10-17T09:55:03.541Z,20.6
2022-10-17T10:05:05.359Z,20.6
2022-10-17T10:15:04.941Z,20.6
2022-10-17T10:25:05.748Z,20.6
2022-10-17T10:35:06.578Z,20.6
2022-10-17T10:45:09.371Z,20.6
2022-10-17T10:55:08.190Z,20.7
2022-10-17T11:05:08.832Z,20.7
2022-10-17T11:15:08.920Z,20.8
2022-10-17T11:25:09.509Z,20.6
2022-10-17T11:35:10.046Z,20.5
2022-10-17T11:45:10.770Z,20.6
2022-10-17T11:55:11.296Z,20.6
2022-10-17T12:05:11.965Z,20.7
2022-10-17T12:15:12.147Z,20.8
2022-10-17T12:25:12.253Z,20.7
2022-10-17T12:35:12.873Z,20.7
2022-10-17T12:45:13.803Z,20.6
2022-10-17T12:55:14.824Z,20.4
2022-10-17T13:05:14.624Z,20.3
2022-10-17T13:25:16.314Z,20.1
2022-10-17T13:35:16.870Z,20.1
2022-10-17T13:45:17.203Z,20
2022-10-17T13:55:18.103Z,19.8
2022-10-17T14:05:20.103Z,19.5
2022-10-17T14:15:19.615Z,19.4
2022-10-17T14:25:19.915Z,19.3
2022-10-17T14:35:40.939Z,19.4
2022-10-17T14:45:23.539Z,19.4
2022-10-17T14:55:21.619Z,19.3
2022-10-17T15:05:22.032Z,19.3
2022-10-17T15:15:22.581Z,19.3
2022-10-17T15:25:23.622Z,19.1
2022-10-17T15:35:24.377Z,19
2022-10-17T15:45:24.892Z,18.7
2022-10-17T15:55:25.278Z,18.5
2022-10-17T16:05:25.638Z,18.3
2022-10-17T16:15:26.357Z,18.1
2022-10-17T16:25:26.591Z,18.1
2022-10-17T16:35:26.720Z,18
2022-10-17T16:45:27.269Z,17.9
2022-10-17T16:55:28.142Z,17.9
2022-10-17T17:05:28.612Z,17.7
2022-10-17T17:15:29.346Z,17.6
2022-10-17T17:25:30.049Z,17.5
2022-10-17T17:35:30.553Z,17.4
2022-10-17T17:45:31.610Z,17.2
2022-10-17T17:55:32.111Z,17.1
2022-10-17T18:05:32.856Z,17.1
2022-10-17T18:15:33.475Z,17.1
2022-10-17T18:25:34.216Z,17
2022-10-17T18:35:34.708Z,16.9
2022-10-17T18:45:35.165Z,16.8
2022-10-17T19:05:35.971Z,16.7
2022-10-17T19:15:36.920Z,16.7
2022-10-17T19:25:37.659Z,16.6
2022-10-17T19:35:38.371Z,16.6
2022-10-17T19:45:47.392Z,16.6
2022-10-17T19:55:47.964Z,16.5
2022-10-17T20:05:48.277Z,16.5
2022-10-17T20:15:49.297Z,16.4
2022-10-17T20:25:56.824Z,16.3
2022-10-17T20:35:49.882Z,16.2
2022-10-17T20:45:51.968Z,16.1
2022-10-17T21:25:52.718Z,15.8
2022-10-17T21:35:53.648Z,15.7
2022-10-17T21:45:54.248Z,15.6
2022-10-17T22:06:02.270Z,15.5
2022-10-17T22:15:56.486Z,15.4
2022-10-17T23:05:59.780Z,15.3
2022-10-17T23:36:02.220Z,15.2
2022-10-17T23:46:02.465Z,15.3
2022-10-17T23:56:03.145Z,15.2
